sensor_id;sensor_type;location;lat;lon;timestamp;pressure;altitude;pressure_sealevel;temperature;humidity
75157;BME280;63736;50.076;8.198;2022-10-26T00:02:08;99532.63;;;12.34;100.00
75157;BME280;63736;50.076;8.198;2022-10-26T00:04:33;99537.84;;;12.35;100.00
75157;BME280;63736;50.076;8.198;2022-10-26T00:06:58;99533.22;;;12.37;100.00
75157;BME280;63736;50.076;8.198;2022-10-26T00:09:24;99521.38;;;12.40;100.00
75157;BME280;63736;50.076;8.198;2022-10-26T00:11:49;99523.06;;;12.41;100.00
75157;BME280;63736;50.076;8.198;2022-10-26T00:14:14;99525.47;;;12.44;100.00
75157;BME280;63736;50.076;8.198;2022-10-26T00:16:43;99517.84;;;12.49;100.00
75157;BME280;63736;50.076;8.198;2022-10-26T00:19:08;99521.38;;;12.50;100.00
75157;BME280;63736;50.076;8.198;2022-10-26T00:21:33;99506.97;;;12.51;100.00
75157;BME280;63736;50.076;8.198;2022-10-26T00:23:59;99505.00;;;12.53;100.00
75157;BME280;63736;50.076;8.198;2022-10-26T00:26:24;99503.06;;;12.55;100.00
75157;BME280;63736;50.076;8.198;2022-10-26T00:28:53;99504.31;;;12.61;100.00
75157;BME280;63736;50.076;8.198;2022-10-26T00:31:19;99516.00;;;12.60;100.00
75157;BME280;63736;50.076;8.198;2022-10-26T00:33:44;99511.50;;;12.60;100.00
75157;BME280;63736;50.076;8.198;2022-10-26T00:36:10;99508.84;;;12.60;100.00
75157;BME280;63736;50.076;8.198;2022-10-26T00:38:38;99516.00;;;12.60;100.00
75157;BME280;63736;50.076;8.198;2022-10-26T00:41:13;99523.75;;;12.63;100.00
75157;BME280;63736;50.076;8.198;2022-10-26T00:43:38;99525.75;;;12.61;100.00
75157;BME280;63736;50.076;8.198;2022-10-26T00:46:06;99519.56;;;12.60;100.00
75157;BME280;63736;50.076;8.198;2022-10-26T00:48:35;99531.25;;;12.59;100.00
75157;BME280;63736;50.076;8.198;2022-10-26T00:51:06;99526.72;;;12.60;100.00
75157;BME280;63736;50.076;8.198;2022-10-26T00:53:33;99526.88;;;12.58;100.00
75157;BME280;63736;50.076;8.198;2022-10-26T00:55:59;99531.25;;;12.59;100.00
75157;BME280;63736;50.076;8.198;2022-10-26T00:58:25;99541.09;;;12.59;100.00
75157;BME280;63736;50.076;8.198;2022-10-26T01:00:50;99538.41;;;12.59;100.00
75157;BME280;63736;50.076;8.198;2022-10-26T01:03:16;99541.97;;;12.59;100.00
75157;BME280;63736;50.076;8.198;2022-10-26T01:05:43;99531.25;;;12.59;100.00
75157;BME280;63736;50.076;8.198;2022-10-26T01:08:10;99532.38;;;12.56;100.00
75157;BME280;63736;50.076;8.198;2022-10-26T01:10:37;99531.50;;;12.56;100.00
75157;BME280;63736;50.076;8.198;2022-10-26T01:13:04;99525.63;;;12.52;100.00
75157;BME280;63736;50.076;8.198;2022-10-26T01:15:42;99511.09;;;12.55;100.00
75157;BME280;63736;50.076;8.198;2022-10-26T01:26:55;99488.91;;;12.63;100.00
75157;BME280;63736;50.076;8.198;2022-10-26T01:29:28;99480.03;;;12.62;100.00
75157;BME280;63736;50.076;8.198;2022-10-26T01:35:11;99510.78;;;12.78;100.00
75157;BME280;63736;50.076;8.198;2022-10-26T01:37:45;99515.28;;;12.77;100.00
75157;BME280;63736;50.076;8.198;2022-10-26T01:40:19;99518.97;;;12.76;100.00
75157;BME280;63736;50.076;8.198;2022-10-26T01:42:49;99515.56;;;12.74;100.00
75157;BME280;63736;50.076;8.198;2022-10-26T01:45:15;99513.19;;;12.71;100.00
75157;BME280;63736;50.076;8.198;2022-10-26T01:47:43;99521.22;;;12.71;100.00
75157;BME280;63736;50.076;8.198;2022-10-26T01:50:10;99508.97;;;12.68;100.00
75157;BME280;63736;50.076;8.198;2022-10-26T01:52:35;99505.56;;;12.66;100.00
75157;BME280;63736;50.076;8.198;2022-10-26T01:55:03;99496.53;;;12.67;100.00
75157;BME280;63736;50.076;8.198;2022-10-26T01:57:32;99500.19;;;12.66;100.00
75157;BME280;63736;50.076;8.198;2022-10-26T02:05:20;99506.97;;;12.70;100.00
75157;BME280;63736;50.076;8.198;2022-10-26T02:11:07;99500.47;;;12.73;100.00
75157;BME280;63736;50.076;8.198;2022-10-26T02:13:46;99489.75;;;12.73;100.00
75157;BME280;63736;50.076;8.198;2022-10-26T02:21:18;99472.53;;;12.76;100.00
75157;BME280;63736;50.076;8.198;2022-10-26T02:23:46;99473.41;;;12.76;100.00
75157;BME280;63736;50.076;8.198;2022-10-26T02:26:15;99469.59;;;12.79;100.00
75157;BME280;63736;50.076;8.198;2022-10-26T02:28:47;99472.25;;;12.79;100.00
75157;BME280;63736;50.076;8.198;2022-10-26T02:31:14;99469.72;;;12.77;100.00
75157;BME280;63736;50.076;8.198;2022-10-26T02:33:44;99472.41;;;12.77;100.00
75157;BME280;63736;50.076;8.198;2022-10-26T02:36:14;99470.88;;;12.75;100.00
75157;BME280;63736;50.076;8.198;2022-10-26T02:38:41;99464.78;;;12.72;100.00
75157;BME280;63736;50.076;8.198;2022-10-26T02:41:09;99466.63;;;12.72;100.00
75157;BME280;63736;50.076;8.198;2022-10-26T02:43:38;99470.31;;;12.71;100.00
75157;BME280;63736;50.076;8.198;2022-10-26T02:46:08;99467.78;;;12.69;100.00
75157;BME280;63736;50.076;8.198;2022-10-26T02:48:35;99468.03;;;12.66;100.00
75157;BME280;63736;50.076;8.198;2022-10-26T02:54:18;99469.31;;;12.62;100.00
75157;BME280;63736;50.076;8.198;2022-10-26T02:57:09;99462.13;;;12.63;100.00
75157;BME280;63736;50.076;8.198;2022-10-26T02:59:40;99458.59;;;12.62;100.00
75157;BME280;63736;50.076;8.198;2022-10-26T03:02:07;99458.75;;;12.61;100.00
75157;BME280;63736;50.076;8.198;2022-10-26T03:04:33;99464.69;;;12.64;100.00
75157;BME280;63736;50.076;8.198;2022-10-26T03:06:59;99463.66;;;12.65;100.00
75157;BME280;63736;50.076;8.198;2022-10-26T03:09:25;99468.91;;;12.67;100.00
75157;BME280;63736;50.076;8.198;2022-10-26T03:11:51;99472.41;;;12.67;100.00
75157;BME280;63736;50.076;8.198;2022-10-26T03:14:17;99464.22;;;12.69;100.00
75157;BME280;63736;50.076;8.198;2022-10-26T03:16:42;99466.63;;;12.72;100.00
75157;BME280;63736;50.076;8.198;2022-10-26T03:19:07;99468.31;;;12.73;100.00
75157;BME280;63736;50.076;8.198;2022-10-26T03:21:33;99470.88;;;12.75;100.00
75157;BME280;63736;50.076;8.198;2022-10-26T03:23:58;99478.75;;;12.76;100.00
75157;BME280;63736;50.076;8.198;2022-10-26T03:26:23;99481.44;;;12.76;100.00
75157;BME280;63736;50.076;8.198;2022-10-26T03:28:49;99480.44;;;12.77;100.00
75157;BME280;63736;50.076;8.198;2022-10-26T03:31:14;99471.41;;;12.78;100.00
75157;BME280;63736;50.076;8.198;2022-10-26T03:33:39;99474.06;;;12.78;100.00
75157;BME280;63736;50.076;8.198;2022-10-26T03:36:05;99472.25;;;12.79;100.00
75157;BME280;63736;50.076;8.198;2022-10-26T03:38:30;99472.41;;;12.77;100.00
75157;BME280;63736;50.076;8.198;2022-10-26T03:40:56;99485.81;;;12.77;100.00
75157;BME280;63736;50.076;8.198;2022-10-26T03:43:21;99478.75;;;12.76;100.00
75157;BME280;63736;50.076;8.198;2022-10-26T03:45:46;99485.09;;;12.75;100.00
75157;BME280;63736;50.076;8.198;2022-10-26T03:48:12;99480.88;;;12.72;100.00
75157;BME280;63736;50.076;8.198;2022-10-26T03:50:38;99473.25;;;12.68;100.00
75157;BME280;63736;50.076;8.198;2022-10-26T03:53:03;99466.50;;;12.64;100.00
75157;BME280;63736;50.076;8.198;2022-10-26T03:55:29;99460.72;;;12.59;100.00
75157;BME280;63736;50.076;8.198;2022-10-26T03:57:54;99465.66;;;12.53;100.00
75157;BME280;63736;50.076;8.198;2022-10-26T04:00:19;99477.66;;;12.49;100.00
75157;BME280;63736;50.076;8.198;2022-10-26T04:02:53;99471.72;;;12.46;100.00
75157;BME280;63736;50.076;8.198;2022-10-26T04:05:18;99471.47;;;12.39;100.00
75157;BME280;63736;50.076;8.198;2022-10-26T04:07:51;99476.81;;;12.39;100.00
75157;BME280;63736;50.076;8.198;2022-10-26T04:10:16;99485.00;;;12.37;100.00
75157;BME280;63736;50.076;8.198;2022-10-26T04:12:42;99477.94;;;12.36;100.00
75157;BME280;63736;50.076;8.198;2022-10-26T04:15:07;99475.00;;;12.39;100.00
75157;BME280;63736;50.076;8.198;2022-10-26T04:17:32;99465.94;;;12.40;100.00
75157;BME280;63736;50.076;8.198;2022-10-26T04:19:58;99478.50;;;12.40;100.00
75157;BME280;63736;50.076;8.198;2022-10-26T04:22:23;99464.28;;;12.39;100.00
75157;BME280;63736;50.076;8.198;2022-10-26T04:24:48;99468.78;;;12.39;100.00
75157;BME280;63736;50.076;8.198;2022-10-26T04:27:14;99458.78;;;12.41;100.00
75157;BME280;63736;50.076;8.198;2022-10-26T04:29:39;99468.78;;;12.39;100.00
75157;BME280;63736;50.076;8.198;2022-10-26T04:32:04;99463.41;;;12.39;100.00
75157;BME280;63736;50.076;8.198;2022-10-26T04:34:31;99454.41;;;12.40;100.00
75157;BME280;63736;50.076;8.198;2022-10-26T04:36:56;99459.75;;;12.40;100.00
75157;BME280;63736;50.076;8.198;2022-10-26T04:39:22;99453.56;;;12.39;100.00
75157;BME280;63736;50.076;8.198;2022-10-26T04:41:47;99452.44;;;12.42;100.00
75157;BME280;63736;50.076;8.198;2022-10-26T04:44:12;99447.91;;;12.43;100.00
75157;BME280;63736;50.076;8.198;2022-10-26T04:46:37;99449.75;;;12.42;100.00
75157;BME280;63736;50.076;8.198;2022-10-26T04:49:03;99450.03;;;12.39;100.00
75157;BME280;63736;50.076;8.198;2022-10-26T04:51:28;99449.88;;;12.40;100.00
75157;BME280;63736;50.076;8.198;2022-10-26T04:53:54;99449.88;;;12.40;100.00
75157;BME280;63736;50.076;8.198;2022-10-26T04:56:19;99449.03;;;12.40;100.00
75157;BME280;63736;50.076;8.198;2022-10-26T04:58:44;99436.94;;;12.36;100.00
75157;BME280;63736;50.076;8.198;2022-10-26T05:01:10;99458.34;;;12.36;100.00
75157;BME280;63736;50.076;8.198;2022-10-26T05:03:35;99465.69;;;12.34;100.00
75157;BME280;63736;50.076;8.198;2022-10-26T05:06:00;99459.50;;;12.33;100.00
75157;BME280;63736;50.076;8.198;2022-10-26T05:08:28;99460.88;;;12.37;100.00
75157;BME280;63736;50.076;8.198;2022-10-26T05:10:54;99461.88;;;12.36;100.00
75157;BME280;63736;50.076;8.198;2022-10-26T05:13:19;99459.91;;;12.38;100.00
75157;BME280;63736;50.076;8.198;2022-10-26T05:15:44;99453.28;;;12.43;100.00
75157;BME280;63736;50.076;8.198;2022-10-26T05:18:10;99457.34;;;12.47;100.00
75157;BME280;63736;50.076;8.198;2022-10-26T05:20:35;99468.34;;;12.53;100.00
75157;BME280;63736;50.076;8.198;2022-10-26T05:23:03;99465.09;;;12.60;100.00
75157;BME280;63736;50.076;8.198;2022-10-26T05:25:31;99465.66;;;12.63;100.00
75157;BME280;63736;50.076;8.198;2022-10-26T05:27:59;99467.34;;;12.64;100.00
75157;BME280;63736;50.076;8.198;2022-10-26T05:30:25;99465.50;;;12.65;100.00
75157;BME280;63736;50.076;8.198;2022-10-26T05:32:58;99469.44;;;12.70;100.00
75157;BME280;63736;50.076;8.198;2022-10-26T05:35:25;99466.06;;;12.68;100.00
75157;BME280;63736;50.076;8.198;2022-10-26T05:37:51;99460.41;;;12.71;100.00
75157;BME280;63736;50.076;8.198;2022-10-26T05:40:17;99456.59;;;12.74;100.00
75157;BME280;63736;50.076;8.198;2022-10-26T05:42:43;99459.13;;;12.76;100.00
75157;BME280;63736;50.076;8.198;2022-10-26T05:45:09;99471.69;;;12.75;100.00
75157;BME280;63736;50.076;8.198;2022-10-26T05:47:41;99477.06;;;12.75;100.00
75157;BME280;63736;50.076;8.198;2022-10-26T05:50:08;99480.16;;;12.70;100.00
75157;BME280;63736;50.076;8.198;2022-10-26T05:52:40;99486.53;;;12.69;100.00
75157;BME280;63736;50.076;8.198;2022-10-26T05:55:07;99481.16;;;12.69;100.00
75157;BME280;63736;50.076;8.198;2022-10-26T05:57:33;99478.50;;;12.69;100.00
75157;BME280;63736;50.076;8.198;2022-10-26T05:59:59;99481.16;;;12.69;100.00
75157;BME280;63736;50.076;8.198;2022-10-26T06:05:06;99488.91;;;12.72;100.00
75157;BME280;63736;50.076;8.198;2022-10-26T06:07:35;99491.44;;;12.74;100.00
75157;BME280;63736;50.076;8.198;2022-10-26T06:10:02;99494.13;;;12.74;100.00
75157;BME280;63736;50.076;8.198;2022-10-26T06:12:27;99495.97;;;12.73;100.00
75157;BME280;63736;50.076;8.198;2022-10-26T06:14:53;99496.81;;;12.74;100.00
75157;BME280;63736;50.076;8.198;2022-10-26T06:17:32;99501.91;;;12.77;100.00
75157;BME280;63736;50.076;8.198;2022-10-26T06:30:39;99538.56;;;12.86;100.00
75157;BME280;63736;50.076;8.198;2022-10-26T06:33:04;99540.94;;;12.89;100.00
75157;BME280;63736;50.076;8.198;2022-10-26T06:35:43;99551.25;;;12.94;100.00
75157;BME280;63736;50.076;8.198;2022-10-26T06:38:19;99549.81;;;13.00;100.00
75157;BME280;63736;50.076;8.198;2022-10-26T06:40:48;99549.50;;;13.03;100.00
75157;BME280;63736;50.076;8.198;2022-10-26T06:43:25;99545.69;;;13.05;100.00
75157;BME280;63736;50.076;8.198;2022-10-26T06:45:58;99546.41;;;13.08;100.00
75157;BME280;63736;50.076;8.198;2022-10-26T06:48:27;99555.16;;;13.10;100.00
75157;BME280;63736;50.076;8.198;2022-10-26T06:50:53;99556.00;;;13.10;100.00
75157;BME280;63736;50.076;8.198;2022-10-26T06:53:27;99550.22;;;13.15;100.00
75157;BME280;63736;50.076;8.198;2022-10-26T06:55:57;99557.25;;;13.16;100.00
75157;BME280;63736;50.076;8.198;2022-10-26T06:58:26;99564.03;;;13.20;100.00
75157;BME280;63736;50.076;8.198;2022-10-26T07:00:53;99558.22;;;13.25;100.00
75157;BME280;63736;50.076;8.198;2022-10-26T07:03:19;99555.25;;;13.28;100.00
75157;BME280;63736;50.076;8.198;2022-10-26T07:05:45;99561.00;;;13.33;100.00
75157;BME280;63736;50.076;8.198;2022-10-26T07:08:11;99568.53;;;13.39;100.00
75157;BME280;63736;50.076;8.198;2022-10-26T07:10:37;99567.47;;;13.50;100.00
75157;BME280;63736;50.076;8.198;2022-10-26T07:13:04;99571.84;;;13.61;100.00
75157;BME280;63736;50.076;8.198;2022-10-26T07:15:30;99575.50;;;13.69;100.00
75157;BME280;63736;50.076;8.198;2022-10-26T07:17:55;99570.38;;;13.76;100.00
75157;BME280;63736;50.076;8.198;2022-10-26T07:20:21;99563.41;;;13.83;100.00
75157;BME280;63736;50.076;8.198;2022-10-26T07:22:55;99574.94;;;13.94;100.00
75157;BME280;63736;50.076;8.198;2022-10-26T07:25:22;99578.88;;;13.99;100.00
75157;BME280;63736;50.076;8.198;2022-10-26T07:27:47;99581.97;;;14.04;100.00
75157;BME280;63736;50.076;8.198;2022-10-26T07:30:12;99590.38;;;14.10;100.00
75157;BME280;63736;50.076;8.198;2022-10-26T07:32:38;99592.63;;;14.14;100.00
75157;BME280;63736;50.076;8.198;2022-10-26T07:35:03;99596.03;;;14.16;100.00
75157;BME280;63736;50.076;8.198;2022-10-26T07:37:29;99594.00;;;14.18;100.00
75157;BME280;63736;50.076;8.198;2022-10-26T07:39:54;99598.94;;;14.23;100.00
75157;BME280;63736;50.076;8.198;2022-10-26T07:42:20;99605.28;;;14.32;100.00
75157;BME280;63736;50.076;8.198;2022-10-26T07:44:45;99604.63;;;14.38;100.00
75157;BME280;63736;50.076;8.198;2022-10-26T07:47:10;99603.88;;;14.46;100.00
75157;BME280;63736;50.076;8.198;2022-10-26T07:49:36;99620.94;;;14.54;100.00
75157;BME280;63736;50.076;8.198;2022-10-26T07:52:01;99612.53;;;14.67;100.00
75157;BME280;63736;50.076;8.198;2022-10-26T07:54:26;99611.28;;;14.80;100.00
75157;BME280;63736;50.076;8.198;2022-10-26T07:56:51;99614.63;;;14.92;100.00
75157;BME280;63736;50.076;8.198;2022-10-26T07:59:17;99615.34;;;15.02;100.00
75157;BME280;63736;50.076;8.198;2022-10-26T08:01:42;99618.97;;;15.11;100.00
75157;BME280;63736;50.076;8.198;2022-10-26T08:04:08;99621.03;;;15.17;100.00
75157;BME280;63736;50.076;8.198;2022-10-26T08:06:33;99618.88;;;15.20;100.00
75157;BME280;63736;50.076;8.198;2022-10-26T08:08:58;99617.03;;;15.21;100.00
75157;BME280;63736;50.076;8.198;2022-10-26T08:11:24;99619.19;;;15.17;100.00
75157;BME280;63736;50.076;8.198;2022-10-26T08:13:53;99614.50;;;15.19;100.00
75157;BME280;63736;50.076;8.198;2022-10-26T08:16:19;99624.44;;;15.19;100.00
75157;BME280;63736;50.076;8.198;2022-10-26T08:18:48;99621.63;;;15.29;100.00
75157;BME280;63736;50.076;8.198;2022-10-26T08:21:14;99613.59;;;15.37;100.00
75157;BME280;63736;50.076;8.198;2022-10-26T08:23:39;99612.81;;;15.45;100.00
75157;BME280;63736;50.076;8.198;2022-10-26T08:26:06;99614.72;;;15.52;100.00
75157;BME280;63736;50.076;8.198;2022-10-26T08:28:31;99620.94;;;15.53;100.00
75157;BME280;63736;50.076;8.198;2022-10-26T08:30:57;99625.34;;;15.54;100.00
75157;BME280;63736;50.076;8.198;2022-10-26T08:33:23;99634.09;;;15.56;100.00
75157;BME280;63736;50.076;8.198;2022-10-26T08:35:54;99642.16;;;15.56;100.00
75157;BME280;63736;50.076;8.198;2022-10-26T08:38:20;99633.91;;;15.58;100.00
75157;BME280;63736;50.076;8.198;2022-10-26T08:40:45;99636.97;;;15.63;100.00
75157;BME280;63736;50.076;8.198;2022-10-26T08:45:57;99641.56;;;15.70;100.00
75157;BME280;63736;50.076;8.198;2022-10-26T08:48:27;99642.81;;;15.76;100.00
75157;BME280;63736;50.076;8.198;2022-10-26T08:51:00;99644.06;;;15.90;100.00
75157;BME280;63736;50.076;8.198;2022-10-26T08:58:48;99640.72;;;17.23;100.00
75157;BME280;63736;50.076;8.198;2022-10-26T09:01:16;99642.22;;;18.55;100.00
75157;BME280;63736;50.076;8.198;2022-10-26T09:03:42;99647.13;;;19.29;100.00
75157;BME280;63736;50.076;8.198;2022-10-26T09:11:59;99653.25;;;22.71;81.36
75157;BME280;63736;50.076;8.198;2022-10-26T09:17:12;99664.69;;;23.41;76.54
75157;BME280;63736;50.076;8.198;2022-10-26T09:25:20;99671.06;;;22.32;80.43
75157;BME280;63736;50.076;8.198;2022-10-26T09:27:49;99677.88;;;22.07;82.71
75157;BME280;63736;50.076;8.198;2022-10-26T09:30:19;99672.75;;;21.62;82.86
75157;BME280;63736;50.076;8.198;2022-10-26T09:32:49;99668.06;;;21.28;85.59
75157;BME280;63736;50.076;8.198;2022-10-26T09:35:20;99672.38;;;21.22;88.38
75157;BME280;63736;50.076;8.198;2022-10-26T09:38:11;99672.94;;;21.11;87.61
75157;BME280;63736;50.076;8.198;2022-10-26T09:46:13;99672.69;;;20.54;91.75
75157;BME280;63736;50.076;8.198;2022-10-26T09:48:50;99688.44;;;20.44;93.20
75157;BME280;63736;50.076;8.198;2022-10-26T09:51:18;99684.41;;;20.40;93.80
75157;BME280;63736;50.076;8.198;2022-10-26T09:53:43;99681.97;;;20.45;92.40
75157;BME280;63736;50.076;8.198;2022-10-26T09:56:11;99676.63;;;20.52;90.12
75157;BME280;63736;50.076;8.198;2022-10-26T09:58:41;99679.41;;;20.58;90.13
75157;BME280;63736;50.076;8.198;2022-10-26T10:01:27;99685.63;;;20.52;89.04
75157;BME280;63736;50.076;8.198;2022-10-26T10:06:36;99698.47;;;20.13;91.07
75157;BME280;63736;50.076;8.198;2022-10-26T10:09:09;99699.38;;;19.91;92.51
75157;BME280;63736;50.076;8.198;2022-10-26T10:11:58;99707.00;;;19.72;94.64
75157;BME280;63736;50.076;8.198;2022-10-26T10:14:25;99705.19;;;19.50;96.57
75157;BME280;63736;50.076;8.198;2022-10-26T10:16:53;99707.44;;;19.38;98.69
75157;BME280;63736;50.076;8.198;2022-10-26T10:19:27;99719.38;;;19.28;98.67
75157;BME280;63736;50.076;8.198;2022-10-26T10:24:55;99721.94;;;19.30;99.14
75157;BME280;63736;50.076;8.198;2022-10-26T10:27:22;99722.34;;;19.42;99.28
75157;BME280;63736;50.076;8.198;2022-10-26T10:29:50;99724.06;;;19.58;96.96
75157;BME280;63736;50.076;8.198;2022-10-26T10:32:26;99742.59;;;19.69;96.93
75157;BME280;63736;50.076;8.198;2022-10-26T10:34:54;99734.63;;;19.68;96.65
75157;BME280;63736;50.076;8.198;2022-10-26T10:37:28;99733.88;;;19.59;95.82
75157;BME280;63736;50.076;8.198;2022-10-26T10:43:16;99746.94;;;19.55;98.25
75157;BME280;63736;50.076;8.198;2022-10-26T10:45:46;99750.97;;;19.59;98.41
75157;BME280;63736;50.076;8.198;2022-10-26T10:48:15;99742.75;;;19.68;97.64
75157;BME280;63736;50.076;8.198;2022-10-26T10:51:02;99751.47;;;19.78;96.73
75157;BME280;63736;50.076;8.198;2022-10-26T10:53:42;99746.22;;;19.85;95.65
75157;BME280;63736;50.076;8.198;2022-10-26T10:59:14;99752.38;;;19.93;95.42
75157;BME280;63736;50.076;8.198;2022-10-26T11:01:49;99754.28;;;19.93;95.80
75157;BME280;63736;50.076;8.198;2022-10-26T11:07:06;99760.59;;;19.85;97.11
75157;BME280;63736;50.076;8.198;2022-10-26T11:09:36;99760.00;;;19.75;97.15
75157;BME280;63736;50.076;8.198;2022-10-26T11:12:26;99766.91;;;19.77;98.32
75157;BME280;63736;50.076;8.198;2022-10-26T11:14:59;99766.44;;;19.74;98.72
75157;BME280;63736;50.076;8.198;2022-10-26T11:20:14;99773.25;;;19.70;99.72
75157;BME280;63736;50.076;8.198;2022-10-26T11:25:21;99768.50;;;19.72;100.00
75157;BME280;63736;50.076;8.198;2022-10-26T11:27:59;99766.25;;;19.75;100.00
75157;BME280;63736;50.076;8.198;2022-10-26T11:30:29;99771.22;;;19.72;99.95
75157;BME280;63736;50.076;8.198;2022-10-26T11:35:36;99771.75;;;19.67;100.00
75157;BME280;63736;50.076;8.198;2022-10-26T11:38:38;99755.97;;;19.71;100.00
75157;BME280;63736;50.076;8.198;2022-10-26T11:41:17;99768.59;;;19.78;100.00
75157;BME280;63736;50.076;8.198;2022-10-26T11:43:47;99769.56;;;19.86;100.00
75157;BME280;63736;50.076;8.198;2022-10-26T11:46:22;99770.44;;;19.86;100.00
75157;BME280;63736;50.076;8.198;2022-10-26T11:49:10;99775.84;;;19.86;100.00
75157;BME280;63736;50.076;8.198;2022-10-26T11:51:40;99777.53;;;19.87;100.00
75157;BME280;63736;50.076;8.198;2022-10-26T11:54:39;99778.19;;;19.89;100.00
75157;BME280;63736;50.076;8.198;2022-10-26T11:57:05;99787.19;;;19.90;100.00
75157;BME280;63736;50.076;8.198;2022-10-26T11:59:36;99780.47;;;20.01;100.00
75157;BME280;63736;50.076;8.198;2022-10-26T12:02:13;99789.72;;;20.06;100.00
75157;BME280;63736;50.076;8.198;2022-10-26T12:04:40;99793.75;;;20.10;100.00
75157;BME280;63736;50.076;8.198;2022-10-26T12:07:12;99788.06;;;20.20;99.63
75157;BME280;63736;50.076;8.198;2022-10-26T12:09:41;99786.19;;;20.21;99.63
75157;BME280;63736;50.076;8.198;2022-10-26T12:12:18;99787.41;;;20.33;99.34
75157;BME280;63736;50.076;8.198;2022-10-26T12:14:52;99785.81;;;20.39;98.23
75157;BME280;63736;50.076;8.198;2022-10-26T12:20:03;99784.34;;;20.51;97.95
75157;BME280;63736;50.076;8.198;2022-10-26T12:22:33;99776.56;;;20.63;97.80
75157;BME280;63736;50.076;8.198;2022-10-26T12:30:25;99793.25;;;20.75;96.30
75157;BME280;63736;50.076;8.198;2022-10-26T12:32:56;99793.44;;;20.73;96.10
75157;BME280;63736;50.076;8.198;2022-10-26T12:48:43;99794.25;;;20.89;95.94
75157;BME280;63736;50.076;8.198;2022-10-26T12:56:31;99792.09;;;20.99;96.41
75157;BME280;63736;50.076;8.198;2022-10-26T13:07:33;99804.47;;;20.87;96.99
75157;BME280;63736;50.076;8.198;2022-10-26T13:12:58;99798.00;;;20.58;97.19
75157;BME280;63736;50.076;8.198;2022-10-26T13:15:27;99802.19;;;20.45;98.82
75157;BME280;63736;50.076;8.198;2022-10-26T13:20:25;99802.78;;;20.41;100.00
75157;BME280;63736;50.076;8.198;2022-10-26T13:22:51;99806.31;;;20.41;100.00
75157;BME280;63736;50.076;8.198;2022-10-26T13:25:21;99812.41;;;20.43;100.00
75157;BME280;63736;50.076;8.198;2022-10-26T13:27:58;99812.88;;;20.47;100.00
75157;BME280;63736;50.076;8.198;2022-10-26T13:30:41;99814.38;;;20.50;100.00
75157;BME280;63736;50.076;8.198;2022-10-26T13:33:13;99818.31;;;20.47;100.00
75157;BME280;63736;50.076;8.198;2022-10-26T13:35:41;99824.09;;;20.44;100.00
75157;BME280;63736;50.076;8.198;2022-10-26T13:38:10;99814.84;;;20.38;100.00
75157;BME280;63736;50.076;8.198;2022-10-26T13:40:37;99828.31;;;20.32;100.00
75157;BME280;63736;50.076;8.198;2022-10-26T13:43:05;99826.13;;;20.27;100.00
75157;BME280;63736;50.076;8.198;2022-10-26T13:45:45;99822.75;;;20.25;100.00
75157;BME280;63736;50.076;8.198;2022-10-26T13:48:21;99832.28;;;20.21;100.00
75157;BME280;63736;50.076;8.198;2022-10-26T13:50:58;99835.38;;;20.18;100.00
75157;BME280;63736;50.076;8.198;2022-10-26T13:53:42;99837.81;;;20.12;100.00
75157;BME280;63736;50.076;8.198;2022-10-26T13:56:21;99842.25;;;20.05;100.00
75157;BME280;63736;50.076;8.198;2022-10-26T13:58:54;99838.41;;;20.00;100.00
75157;BME280;63736;50.076;8.198;2022-10-26T14:01:23;99829.63;;;19.97;100.00
75157;BME280;63736;50.076;8.198;2022-10-26T14:03:49;99827.28;;;19.94;100.00
75157;BME280;63736;50.076;8.198;2022-10-26T14:08:41;99835.97;;;19.90;100.00
75157;BME280;63736;50.076;8.198;2022-10-26T14:11:11;99852.06;;;19.91;100.00
75157;BME280;63736;50.076;8.198;2022-10-26T14:13:37;99852.50;;;19.95;100.00
75157;BME280;63736;50.076;8.198;2022-10-26T14:16:06;99855.19;;;20.03;100.00
75157;BME280;63736;50.076;8.198;2022-10-26T14:18:32;99857.69;;;20.05;100.00
75157;BME280;63736;50.076;8.198;2022-10-26T14:21:07;99864.72;;;20.14;100.00
75157;BME280;63736;50.076;8.198;2022-10-26T14:23:45;99854.19;;;20.19;100.00
75157;BME280;63736;50.076;8.198;2022-10-26T14:26:22;99861.22;;;20.28;100.00
75157;BME280;63736;50.076;8.198;2022-10-26T14:28:51;99854.88;;;20.36;100.00
75157;BME280;63736;50.076;8.198;2022-10-26T14:31:28;99863.09;;;20.43;100.00
75157;BME280;63736;50.076;8.198;2022-10-26T14:33:55;99861.59;;;20.40;100.00
75157;BME280;63736;50.076;8.198;2022-10-26T14:36:32;99861.16;;;20.37;100.00
75157;BME280;63736;50.076;8.198;2022-10-26T14:39:29;99876.75;;;20.35;100.00
75157;BME280;63736;50.076;8.198;2022-10-26T14:41:54;99860.19;;;20.29;100.00
75157;BME280;63736;50.076;8.198;2022-10-26T14:44:22;99872.25;;;20.27;100.00
75157;BME280;63736;50.076;8.198;2022-10-26T14:46:48;99864.00;;;20.20;100.00
75157;BME280;63736;50.076;8.198;2022-10-26T14:49:26;99870.44;;;20.19;100.00
75157;BME280;63736;50.076;8.198;2022-10-26T14:52:00;99873.06;;;20.12;100.00
75157;BME280;63736;50.076;8.198;2022-10-26T14:54:28;99875.84;;;20.04;100.00
75157;BME280;63736;50.076;8.198;2022-10-26T14:56:55;99876.38;;;20.00;100.00
75157;BME280;63736;50.076;8.198;2022-10-26T15:01:49;99873.75;;;19.91;100.00
75157;BME280;63736;50.076;8.198;2022-10-26T15:04:30;99885.41;;;19.92;100.00
75157;BME280;63736;50.076;8.198;2022-10-26T15:15:33;99882.53;;;19.62;100.00
75157;BME280;63736;50.076;8.198;2022-10-26T15:17:59;99884.13;;;19.56;100.00
75157;BME280;63736;50.076;8.198;2022-10-26T15:20:26;99884.47;;;19.53;100.00
75157;BME280;63736;50.076;8.198;2022-10-26T15:22:54;99888.53;;;19.49;100.00
75157;BME280;63736;50.076;8.198;2022-10-26T15:25:23;99887.22;;;19.45;100.00
75157;BME280;63736;50.076;8.198;2022-10-26T15:27:50;99893.34;;;19.39;100.00
75157;BME280;63736;50.076;8.198;2022-10-26T15:30:22;99896.59;;;19.34;100.00